createdAt,value
2022-10-19T00:00:12.051Z,99555.81
2022-10-19T00:05:16.167Z,99564.34
2022-10-19T00:10:18.814Z,99569.06
2022-10-19T00:15:21.367Z,99561.69
2022-10-19T00:20:25.256Z,99551.78
2022-10-19T00:25:27.885Z,99546.56
2022-10-19T00:30:30.809Z,99548.03
2022-10-19T00:35:34.841Z,99546.75
2022-10-19T00:40:39.159Z,99548.38
2022-10-19T00:45:41.715Z,99536.31
2022-10-19T00:50:46.142Z,99539.19
2022-10-19T00:55:48.760Z,99536.28
2022-10-19T01:00:51.360Z,99532.13
2022-10-19T01:05:55.617Z,99546.63
2022-10-19T01:11:04.930Z,99543.09
2022-10-19T01:16:13.505Z,99537.03
2022-10-19T01:21:26.086Z,99534.31
2022-10-19T01:26:55.137Z,99529.50
2022-10-19T01:32:02.175Z,99518.69
2022-10-19T01:37:09.701Z,99527.06
2022-10-19T01:42:13.963Z,99528.22
2022-10-19T01:47:20.279Z,99534.41
2022-10-19T01:52:24.512Z,99532.91
2022-10-19T01:57:29.347Z,99537.38
2022-10-19T02:02:33.401Z,99535.66
2022-10-19T02:07:37.315Z,99524.06
2022-10-19T02:12:40.134Z,99510.50
2022-10-19T02:17:47.221Z,99512.81
2022-10-19T02:22:49.786Z,99503.38
2022-10-19T02:27:53.469Z,99501.69
2022-10-19T02:32:57.464Z,99494.38
2022-10-19T02:38:01.104Z,99484.06
2022-10-19T02:43:07.200Z,99489.66
2022-10-19T02:48:14.860Z,99482.16
2022-10-19T02:53:17.433Z,99488.34
2022-10-19T02:58:20.495Z,99486.47
2022-10-19T03:03:24.725Z,99485.25
2022-10-19T03:08:27.457Z,99478.97
2022-10-19T03:13:30.026Z,99474.88
2022-10-19T03:18:34.516Z,99476.03
2022-10-19T03:23:37.340Z,99485.06
2022-10-19T03:28:39.916Z,99478.50
2022-10-19T03:33:43.913Z,99480.13
2022-10-19T03:38:46.433Z,99478.13
2022-10-19T03:43:49.011Z,99474.59
2022-10-19T03:48:53.015Z,99471.38
2022-10-19T03:53:56.054Z,99473.28
2022-10-19T03:58:59.694Z,99481.38
2022-10-19T04:04:04.844Z,99485.38
2022-10-19T04:09:08.416Z,99481.91
2022-10-19T04:14:15.934Z,99484.31
2022-10-19T04:19:26.937Z,99478.50
2022-10-19T04:24:30.553Z,99490.75
2022-10-19T04:29:33.139Z,99492.06
2022-10-19T04:34:39.901Z,99485.16
2022-10-19T04:39:43.735Z,99497.03
2022-10-19T04:44:46.383Z,99489.31
2022-10-19T04:49:50.275Z,99485.72
2022-10-19T04:54:52.893Z,99488.06
2022-10-19T04:59:55.457Z,99487.22
2022-10-19T05:04:59.504Z,99489.13
2022-10-19T05:10:02.134Z,99485.41
2022-10-19T05:15:05.686Z,99483.09
2022-10-19T05:20:11.226Z,99477.09
2022-10-19T05:25:13.763Z,99473.28
2022-10-19T05:30:16.420Z,99473.41
2022-10-19T05:35:22.597Z,99487.03
2022-10-19T05:40:25.399Z,99481.44
2022-10-19T05:45:28.031Z,99468.66
2022-10-19T05:50:32.111Z,99469.25
2022-10-19T05:55:35.695Z,99468.78
2022-10-19T06:00:38.636Z,99468.63
2022-10-19T06:05:42.773Z,99465.88
2022-10-19T06:10:45.889Z,99460.50
2022-10-19T06:15:51.047Z,99468.38
2022-10-19T06:20:54.922Z,99469.41
2022-10-19T06:25:57.573Z,99474.72
2022-10-19T06:31:02.804Z,99471.66
2022-10-19T06:36:08.405Z,99468.91
2022-10-19T06:41:11.794Z,99468.72
2022-10-19T06:46:17.353Z,99470.25
2022-10-19T06:51:21.629Z,99483.06
2022-10-19T06:56:24.989Z,99489.31
2022-10-19T07:01:27.727Z,99489.59
2022-10-19T07:06:36.498Z,99485.75
2022-10-19T07:11:44.861Z,99488.94
2022-10-19T07:16:51.699Z,99499.97
2022-10-19T07:21:55.851Z,99506.50
2022-10-19T07:26:59.029Z,99503.56
2022-10-19T07:32:02.698Z,99495.84
2022-10-19T07:37:07.718Z,99495.13
2022-10-19T07:42:10.391Z,99506.72
2022-10-19T07:47:13.707Z,99507.75
2022-10-19T07:52:18.543Z,99503.88
2022-10-19T07:57:22.256Z,99510.91
2022-10-19T08:02:30.877Z,99518.25
2022-10-19T08:07:43.521Z,99506.63
2022-10-19T08:12:46.120Z,99508.84
2022-10-19T08:17:49.165Z,99499.78
2022-10-19T08:22:59.055Z,99500.88
2022-10-19T08:28:02.166Z,99497.13
2022-10-19T08:33:07.271Z,99498.78
2022-10-19T08:38:11.754Z,99504.34
2022-10-19T08:43:20.063Z,99493.44
2022-10-19T08:48:25.135Z,99496.78
2022-10-19T08:53:36.831Z,99487.13
2022-10-19T08:58:50.750Z,99485.97
2022-10-19T09:03:56.868Z,99473.72
2022-10-19T09:09:01.036Z,99468.25
2022-10-19T09:14:06.606Z,99463.44
2022-10-19T09:19:14.053Z,99460.06
2022-10-19T09:24:25.778Z,99442.84
2022-10-19T09:29:30.888Z,99432.03
2022-10-19T09:34:35.770Z,99438.78
2022-10-19T09:39:42.361Z,99435.75
2022-10-19T09:44:50.084Z,99437.53
2022-10-19T09:50:06.291Z,99431.06
2022-10-19T09:55:18.770Z,99431.63
2022-10-19T10:00:22.490Z,99439.88
2022-10-19T10:05:31.508Z,99430.00
2022-10-19T10:10:38.725Z,99430.47
2022-10-19T10:15:44.046Z,99423.66
2022-10-19T10:21:00.693Z,99432.63
2022-10-19T10:26:06.842Z,99442.66
2022-10-19T10:31:10.665Z,99429.66
2022-10-19T10:36:13.565Z,99426.03
2022-10-19T10:41:18.731Z,99430.56
2022-10-19T10:46:23.871Z,99416.88
2022-10-19T10:51:31.351Z,99417.31
2022-10-19T10:56:35.447Z,99409.94
2022-10-19T11:01:41.080Z,99415.03
2022-10-19T11:06:48.486Z,99412.34
2022-10-19T11:11:56.042Z,99392.69
2022-10-19T11:17:00.888Z,99380.25
2022-10-19T11:22:15.166Z,99380.69
2022-10-19T11:27:25.966Z,99372.56
2022-10-19T11:32:32.157Z,99365.69
2022-10-19T11:37:49.484Z,99353.72
2022-10-19T11:43:08.905Z,99345.81
2022-10-19T11:48:37.077Z,99341.50
2022-10-19T11:53:45.855Z,99327.47
2022-10-19T11:58:56.514Z,99326.06
2022-10-19T12:04:22.827Z,99320.56
2022-10-19T12:09:31.950Z,99308.00
2022-10-19T12:14:37.822Z,99315.44
2022-10-19T12:19:42.943Z,99309.78
2022-10-19T12:24:45.490Z,99307.75
2022-10-19T12:29:50.949Z,99283.78
2022-10-19T12:34:57.686Z,99277.34
2022-10-19T12:40:03.962Z,99265.25
2022-10-19T12:45:20.001Z,99262.56
2022-10-19T12:50:53.892Z,99258.25
2022-10-19T12:56:02.084Z,99256.13
2022-10-19T13:01:07.356Z,99250.91
2022-10-19T13:06:12.627Z,99228.84
2022-10-19T13:11:15.991Z,99228.59
2022-10-19T13:16:40.153Z,99227.50
2022-10-19T13:21:47.593Z,99222.19
2022-10-19T13:27:10.279Z,99209.13
2022-10-19T13:32:32.106Z,99200.78
2022-10-19T13:37:37.007Z,99202.91
2022-10-19T13:42:40.039Z,99196.63
2022-10-19T13:47:45.029Z,99192.28
2022-10-19T13:52:55.363Z,99195.16
2022-10-19T13:58:13.864Z,99193.56
2022-10-19T14:03:23.502Z,99192.09
2022-10-19T14:08:47.312Z,99181.56
2022-10-19T14:14:07.656Z,99177.13
2022-10-19T14:19:13.615Z,99179.00
2022-10-19T14:24:22.893Z,99193.13
2022-10-19T14:29:26.999Z,99184.06
2022-10-19T14:34:29.603Z,99180.69
2022-10-19T14:39:34.075Z,99173.09
2022-10-19T14:44:40.074Z,99173.50
2022-10-19T14:49:42.936Z,99168.28
2022-10-19T14:54:48.081Z,99162.91
2022-10-19T14:59:53.939Z,99162.91
2022-10-19T15:04:59.101Z,99144.09
2022-10-19T15:10:04.107Z,99129.41
2022-10-19T15:15:12.619Z,99119.97
2022-10-19T15:20:23.764Z,99112.59
2022-10-19T15:25:33.307Z,99124.44
2022-10-19T15:30:37.300Z,99117.22
2022-10-19T15:35:40.726Z,99114.28
2022-10-19T15:40:44.179Z,99115.63
2022-10-19T15:45:48.131Z,99105.00
2022-10-19T15:50:51.928Z,99114.28
2022-10-19T15:55:54.688Z,99107.91
2022-10-19T16:00:58.663Z,99112.94
2022-10-19T16:06:02.137Z,99120.38
2022-10-19T16:11:05.073Z,99111.91
2022-10-19T16:16:11.494Z,99096.09
2022-10-19T16:21:14.383Z,99096.38
2022-10-19T16:26:17.559Z,99088.50
2022-10-19T16:31:21.913Z,99084.94
2022-10-19T16:36:24.854Z,99078.84
2022-10-19T16:41:27.504Z,99075.50
2022-10-19T16:46:31.558Z,99078.69
2022-10-19T16:51:37.627Z,99063.66
2022-10-19T16:56:43.648Z,99064.56
2022-10-19T17:01:47.775Z,99053.28
2022-10-19T17:06:50.459Z,99068.63
2022-10-19T17:11:53.079Z,99060.38
2022-10-19T17:16:56.977Z,99072.94
2022-10-19T17:22:02.088Z,99074.34
2022-10-19T17:27:04.731Z,99065.38
2022-10-19T17:32:09.161Z,99069.88
2022-10-19T17:37:12.662Z,99073.41
2022-10-19T17:42:15.367Z,99074.72
2022-10-19T17:47:19.334Z,99080.06
2022-10-19T17:52:21.867Z,99074.13
2022-10-19T17:57:25.341Z,99063.47
2022-10-19T18:02:29.281Z,99062.25
2022-10-19T18:07:32.449Z,99061.75
2022-10-19T18:12:35.154Z,99068.91
2022-10-19T18:17:39.227Z,99061.50
2022-10-19T18:27:45.557Z,99064.81
2022-10-19T18:32:51.318Z,99059.81
2022-10-19T18:37:53.911Z,99049.50
2022-10-19T18:42:56.445Z,99038.09
2022-10-19T18:48:00.434Z,99027.91
2022-10-19T18:53:03.625Z,99022.22
2022-10-19T18:58:06.319Z,99018.69
2022-10-19T19:03:10.507Z,99027.66
2022-10-19T19:08:13.075Z,99019.19
2022-10-19T19:13:15.692Z,99015.41
2022-10-19T19:18:19.940Z,99010.66
2022-10-19T19:23:29.008Z,99001.81
2022-10-19T19:28:31.703Z,99002.66
2022-10-19T19:33:35.858Z,99009.59
2022-10-19T19:38:38.731Z,98997.56
2022-10-19T19:43:41.482Z,99006.22
2022-10-19T19:48:46.272Z,99005.47
2022-10-19T19:53:49.183Z,99006.44
2022-10-19T19:58:56.727Z,99000.50
2022-10-19T20:09:11.652Z,98991.38
2022-10-19T20:14:14.783Z,98975.75
2022-10-19T20:19:18.865Z,98978.06
2022-10-19T20:24:21.625Z,98984.47
2022-10-19T20:29:51.083Z,98967.97
2022-10-19T20:34:55.075Z,98969.44
2022-10-19T20:39:57.710Z,98979.28
2022-10-19T20:45:00.283Z,98968.47
2022-10-19T20:50:05.249Z,98960.56
2022-10-19T20:55:08.191Z,98965.19
2022-10-19T21:00:12.365Z,98961.06
2022-10-19T21:05:16.585Z,98961.53
2022-10-19T21:10:19.184Z,98955.97
2022-10-19T21:20:50.354Z,98958.25
2022-10-19T21:25:55.996Z,98946.13
2022-10-19T21:31:02.825Z,98947.44
2022-10-19T21:36:08.900Z,98944.50
2022-10-19T21:41:12.642Z,98936.75
2022-10-19T21:46:16.398Z,98937.28
2022-10-19T21:51:26.704Z,98930.88
2022-10-19T21:56:32.425Z,98930.16
2022-10-19T22:01:38.703Z,98920.66
2022-10-19T22:06:45.664Z,98926.97
2022-10-19T22:11:49.309Z,98918.59
2022-10-19T22:16:51.825Z,98923.78
2022-10-19T22:21:55.705Z,98920.25
2022-10-19T22:26:58.238Z,98916.97
2022-10-19T22:32:00.789Z,98900.78
2022-10-19T22:37:04.991Z,98900.31
2022-10-19T22:42:07.603Z,98897.00
2022-10-19T22:48:51.106Z,98895.78
2022-10-19T22:55:51.684Z,98889.50
2022-10-19T23:01:03.699Z,98873.97
2022-10-19T23:06:06.687Z,98868.06
2022-10-19T23:11:11.357Z,98862.09
2022-10-19T23:16:14.219Z,98852.28
2022-10-19T23:21:17.128Z,98844.78
2022-10-19T23:26:22.263Z,98834.38
2022-10-19T23:31:28.399Z,98828.53
2022-10-19T23:36:31.104Z,98813.88
2022-10-19T23:41:35.244Z,98808.69
2022-10-19T23:46:38.061Z,98821.25
2022-10-19T23:51:40.772Z,98817.13
2022-10-19T23:56:44.933Z,98809.25
